^^
Saratoga-Weather Station Historical Data
Daily Summary for January 23, 2021 Units:  Metric    English   Both
Daily Weekly Monthly Yearly Custom
  High: Low: Average:
Temperature: 5.7 °C 1.7 °C 3.8 °C
Dew Point: 3.5 °C 1 °C 2.5 °C
Humidity: 96% 82% 92%
Wind Speed: 11.3km/h 0km/h 2.6km/h
Wind Gust: 16.1km/h - -
Wind- - South
Pressure: 999.0 hPa 990.9 hPa -
Precipitation: 5.8 mm    
Historical Graphs
 
 
Tabular Data for January 23, 2021
Time Temperature Dew Point Pressure Wind Wind Speed Wind Gust Humidity Rainfall Rate (Hourly) solar
00:03 3.4 °C 1.9 °C 998.3 hPa West 11.1 km/h 11.3 km/h 90% 0.0 mm 0 W/m2
00:08 3.4 °C 1.9 °C 998.3 hPa WSW 4.7 km/h 11.3 km/h 90% 0.0 mm 0 W/m2
00:13 3.3 °C 1.8 °C 998.6 hPa WNW 4.7 km/h 12.9 km/h 90% 0.0 mm 0 W/m2
00:18 3.3 °C 1.8 °C 998.6 hPa West 4.7 km/h 11.3 km/h 90% 0.0 mm 0 W/m2
00:23 3.2 °C 1.7 °C 998.6 hPa West 6.4 km/h 12.9 km/h 90% 0.0 mm 0 W/m2
00:28 3.2 °C 1.9 °C 998.6 hPa West 1.4 km/h 4.8 km/h 91% 0.0 mm 0 W/m2
00:33 3.1 °C 1.8 °C 998.6 hPa West 1.4 km/h 6.4 km/h 91% 0.0 mm 0 W/m2
00:38 3.1 °C 1.8 °C 998.6 hPa NW 6.4 km/h 6.4 km/h 91% 0.0 mm 0 W/m2
00:43 3 °C 1.7 °C 998.6 hPa WSW 3.2 km/h 6.4 km/h 91% 0.0 mm 0 W/m2
00:48 3 °C 1.7 °C 998.6 hPa Calm   4.8 km/h 91% 0.0 mm 0 W/m2
00:53 2.9 °C 1.6 °C 998.6 hPa WSW 4.7 km/h 6.4 km/h 91% 0.0 mm 0 W/m2
00:58 2.9 °C 1.7 °C 998.6 hPa WNW 3.2 km/h 6.4 km/h 92% 0.0 mm 0 W/m2
01:03 2.9 °C 1.7 °C 998.6 hPa West 3.2 km/h 4.8 km/h 92% 0.0 mm 0 W/m2
01:08 2.9 °C 1.7 °C 998.6 hPa NNW 1.4 km/h 6.4 km/h 92% 0.0 mm 0 W/m2
01:13 2.9 °C 1.7 °C 998.6 hPa WSW 1.4 km/h 3.2 km/h 92% 0.0 mm 0 W/m2
01:18 2.9 °C 1.7 °C 998.6 hPa West 1.4 km/h 4.8 km/h 92% 0.0 mm 0 W/m2
01:23 2.9 °C 1.7 °C 998.6 hPa West 6.4 km/h 6.4 km/h 92% 0.0 mm 0 W/m2
01:28 2.9 °C 1.9 °C 998.6 hPa West 9.7 km/h 9.7 km/h 93% 0.0 mm 0 W/m2
01:33 2.9 °C 1.9 °C 998.6 hPa West 3.2 km/h 4.8 km/h 93% 0.0 mm 0 W/m2
01:38 2.8 °C 1.8 °C 998.6 hPa WNW 9.7 km/h 9.7 km/h 93% 0.0 mm 0 W/m2
01:43 2.8 °C 1.8 °C 998.6 hPa West 6.4 km/h 6.4 km/h 93% 0.0 mm 0 W/m2
01:48 2.8 °C 1.8 °C 998.6 hPa South 1.4 km/h 6.4 km/h 93% 0.0 mm 0 W/m2
01:53 2.8 °C 1.8 °C 998.6 hPa Calm   1.6 km/h 93% 0.0 mm 0 W/m2
01:58 2.9 °C 1.9 °C 998.6 hPa East 1.4 km/h 6.4 km/h 93% 0.0 mm 0 W/m2
02:03 2.9 °C 2 °C 998.6 hPa Calm   6.4 km/h 94% 0.0 mm 0 W/m2
02:08 3.1 °C 2.2 °C 998.6 hPa South 1.4 km/h 4.8 km/h 94% 0.0 mm 0 W/m2
02:13 3.1 °C 2.2 °C 998.6 hPa ESE 1.4 km/h 4.8 km/h 94% 0.0 mm 0 W/m2
02:18 3.2 °C 2.3 °C 998.6 hPa SE 1.4 km/h 4.8 km/h 94% 0.0 mm 0 W/m2
02:23 3.2 °C 2.3 °C 998.6 hPa Calm   3.2 km/h 94% 0.0 mm 0 W/m2
02:28 3.2 °C 2.3 °C 998.6 hPa East 4.7 km/h 6.4 km/h 94% 0.0 mm 0 W/m2
02:33 3.3 °C 2.4 °C 998.6 hPa Calm   3.2 km/h 94% 0.0 mm 0 W/m2
02:38 3.3 °C 2.4 °C 998.6 hPa East 3.2 km/h 3.2 km/h 94% 0.0 mm 0 W/m2
02:43 3.3 °C 2.4 °C 998.6 hPa Calm   1.6 km/h 94% 0.0 mm 0 W/m2
02:48 3.3 °C 2.4 °C 998.6 hPa Calm   1.6 km/h 94% 0.0 mm 0 W/m2
02:53 3.4 °C 2.5 °C 999.0 hPa North 1.4 km/h 6.4 km/h 94% 0.0 mm 0 W/m2
02:58 3.5 °C 2.6 °C 999.0 hPa NW 1.4 km/h 3.2 km/h 94% 0.0 mm 0 W/m2
03:03 3.6 °C 2.7 °C 999.0 hPa Calm   6.4 km/h 94% 0.0 mm 0 W/m2
03:08 3.6 °C 2.7 °C 999.0 hPa Calm   3.2 km/h 94% 0.0 mm 0 W/m2
03:13 3.6 °C 2.7 °C 999.0 hPa Calm     94% 0.0 mm 0 W/m2
03:18 3.6 °C 2.7 °C 999.0 hPa Calm   1.6 km/h 94% 0.0 mm 0 W/m2
03:23 3.7 °C 2.8 °C 999.0 hPa Calm   4.8 km/h 94% 0.0 mm 0 W/m2
03:28 3.7 °C 2.8 °C 998.6 hPa Calm   3.2 km/h 94% 0.0 mm 0 W/m2
03:33 3.7 °C 2.8 °C 998.6 hPa Calm   1.6 km/h 94% 0.0 mm 0 W/m2
03:38 3.7 °C 2.8 °C 998.6 hPa NW 3.2 km/h 4.8 km/h 94% 0.0 mm 0 W/m2
03:43 3.7 °C 2.8 °C 998.6 hPa ENE 3.2 km/h 3.2 km/h 94% 0.0 mm 0 W/m2
03:49 3.8 °C 2.9 °C 998.6 hPa East 1.4 km/h 4.8 km/h 94% 0.0 mm 0 W/m2
03:54 3.8 °C 2.8 °C 998.6 hPa Calm   1.6 km/h 93% 0.0 mm 0 W/m2
03:59 3.8 °C 2.9 °C 998.6 hPa NNW 1.4 km/h 4.8 km/h 94% 0.0 mm 0 W/m2
04:04 3.8 °C 2.8 °C 998.6 hPa Calm   1.6 km/h 93% 0.0 mm 0 W/m2
04:09 3.8 °C 2.8 °C 998.6 hPa Calm   1.6 km/h 93% 0.0 mm 0 W/m2
04:14 3.9 °C 2.9 °C 998.6 hPa NNW 1.4 km/h 6.4 km/h 93% 0.0 mm 0 W/m2
04:19 3.9 °C 2.9 °C 998.6 hPa East 3.2 km/h 8 km/h 93% 0.0 mm 0 W/m2
04:24 3.9 °C 2.9 °C 998.6 hPa Calm   1.6 km/h 93% 0.0 mm 0 W/m2
04:29 3.9 °C 2.9 °C 998.6 hPa East 1.4 km/h 3.2 km/h 93% 0.0 mm 0 W/m2
04:34 4 °C 3 °C 998.6 hPa East 3.2 km/h 4.8 km/h 93% 0.0 mm 0 W/m2
04:39 4 °C 3 °C 998.6 hPa Calm   3.2 km/h 93% 0.0 mm 0 W/m2
04:44 4 °C 3 °C 998.6 hPa NE 1.4 km/h 1.6 km/h 93% 0.0 mm 0 W/m2
04:49 4.1 °C 3.1 °C 998.6 hPa NNW 1.4 km/h 4.8 km/h 93% 0.0 mm 0 W/m2
04:54 4.1 °C 3.1 °C 998.6 hPa Calm   3.2 km/h 93% 0.0 mm 0 W/m2
04:59 4.1 °C 3.1 °C 998.6 hPa NE 1.4 km/h 3.2 km/h 93% 0.0 mm 0 W/m2
05:04 4.1 °C 3.1 °C 998.6 hPa NE 1.4 km/h 1.6 km/h 93% 0.0 mm 0 W/m2
05:09 4.1 °C 3.1 °C 998.6 hPa Calm   3.2 km/h 93% 0.0 mm 0 W/m2
05:14 4.1 °C 3.1 °C 998.6 hPa Calm   6.4 km/h 93% 0.0 mm 0 W/m2
05:19 4.1 °C 3.1 °C 998.6 hPa North 3.2 km/h 3.2 km/h 93% 0.0 mm 0 W/m2
05:24 4.2 °C 3.2 °C 998.3 hPa West 1.4 km/h 6.4 km/h 93% 0.0 mm 0 W/m2
05:29 4.2 °C 3.2 °C 998.3 hPa Calm   4.8 km/h 93% 0.0 mm 0 W/m2
05:34 4.2 °C 3.2 °C 998.3 hPa North 4.7 km/h 6.4 km/h 93% 0.0 mm 0 W/m2
05:39 4.2 °C 3.2 °C 998.0 hPa NNE 3.2 km/h 8 km/h 93% 0.0 mm 0 W/m2
05:44 4.3 °C 3.3 °C 998.0 hPa WNW 3.2 km/h 3.2 km/h 93% 0.0 mm 0 W/m2
05:49 4.3 °C 3.3 °C 998.0 hPa NW 4.7 km/h 11.3 km/h 93% 0.0 mm 0 W/m2
05:54 4.3 °C 3.3 °C 997.6 hPa East 4.7 km/h 8 km/h 93% 0.0 mm 0 W/m2
05:59 4.3 °C 3.3 °C 998.0 hPa North 7.9 km/h 11.3 km/h 93% 0.0 mm 0 W/m2
06:04 4.4 °C 3.4 °C 998.0 hPa NNW 3.2 km/h 8 km/h 93% 0.0 mm 0 W/m2
06:09 4.4 °C 3.4 °C 998.0 hPa North 3.2 km/h 6.4 km/h 93% 0.0 mm 0 W/m2
06:14 4.4 °C 3.4 °C 998.0 hPa West 1.4 km/h 3.2 km/h 93% 0.0 mm 0 W/m2
06:19 4.4 °C 3.4 °C 998.0 hPa NNE 4.7 km/h 6.4 km/h 93% 0.0 mm 0 W/m2
06:24 4.4 °C 3.4 °C 998.0 hPa NW 4.7 km/h 4.8 km/h 93% 0.0 mm 0 W/m2
06:29 4.4 °C 3.2 °C 998.0 hPa WNW 3.2 km/h 4.8 km/h 92% 0.0 mm 0 W/m2
06:34 4.4 °C 3.2 °C 998.0 hPa NNE 3.2 km/h 6.4 km/h 92% 0.0 mm 0 W/m2
06:39 4.4 °C 3.2 °C 998.0 hPa West 11.1 km/h 11.3 km/h 92% 0.0 mm 0 W/m2
06:44 4.4 °C 3.2 °C 998.0 hPa WNW 3.2 km/h 6.4 km/h 92% 0.0 mm 0 W/m2
06:49 4.4 °C 3.2 °C 998.0 hPa NNE 11.3 km/h 11.3 km/h 92% 0.0 mm 0 W/m2
06:54 4.4 °C 3.2 °C 998.0 hPa SSE 1.4 km/h 6.4 km/h 92% 0.0 mm 0 W/m2
06:59 4.4 °C 3.2 °C 998.0 hPa WNW 1.4 km/h 4.8 km/h 92% 0.0 mm 0 W/m2
07:04 4.4 °C 3.2 °C 998.0 hPa WNW 6.4 km/h 8 km/h 92% 0.0 mm 0 W/m2
07:09 4.4 °C 3.2 °C 998.0 hPa NW 4.7 km/h 4.8 km/h 92% 0.0 mm 0 W/m2
07:14 4.4 °C 3.2 °C 998.0 hPa NW 6.4 km/h 6.4 km/h 92% 0.0 mm 0 W/m2
07:19 4.4 °C 3.2 °C 998.0 hPa Calm     92% 0.0 mm 0 W/m2
07:24 4.4 °C 3.2 °C 998.0 hPa SSW 11.1 km/h 11.3 km/h 92% 0.0 mm 0 W/m2
07:29 4.4 °C 3.2 °C 998.0 hPa NW 1.4 km/h 4.8 km/h 92% 0.0 mm 0 W/m2
07:34 4.4 °C 3.2 °C 998.0 hPa WSW 3.2 km/h 11.3 km/h 92% 0.0 mm 0 W/m2
07:39 4.4 °C 3.2 °C 998.0 hPa WNW 3.2 km/h 6.4 km/h 92% 0.0 mm 0 W/m2
07:44 4.4 °C 3.2 °C 998.0 hPa North 1.4 km/h 3.2 km/h 92% 0.0 mm 0 W/m2
07:49 4.3 °C 3.1 °C 998.0 hPa North 4.7 km/h 4.8 km/h 92% 0.0 mm 0 W/m2
07:54 4.3 °C 3.1 °C 998.0 hPa SE 3.2 km/h 6.4 km/h 92% 0.0 mm 0 W/m2
07:59 4.3 °C 3.1 °C 998.0 hPa West 1.4 km/h 4.8 km/h 92% 0.0 mm 0 W/m2
08:04 4.3 °C 3.1 °C 998.0 hPa NW 1.4 km/h 4.8 km/h 92% 0.0 mm 0 W/m2
08:09 4.3 °C 3.1 °C 998.0 hPa SW 3.2 km/h 8 km/h 92% 0.0 mm 0 W/m2
08:14 4.3 °C 3.1 °C 997.6 hPa NW 4.7 km/h 12.9 km/h 92% 0.0 mm 0 W/m2
08:19 4.3 °C 3.1 °C 997.6 hPa NW 4.7 km/h 6.4 km/h 92% 0.0 mm 0 W/m2
08:24 4.3 °C 3.1 °C 998.0 hPa Calm   1.6 km/h 92% 0.0 mm 0 W/m2
08:29 4.3 °C 3.1 °C 997.6 hPa NNE 1.4 km/h 3.2 km/h 92% 0.0 mm 0 W/m2
08:34 4.2 °C 3 °C 997.6 hPa WSW 3.2 km/h 3.2 km/h 92% 0.0 mm 0 W/m2
08:39 4.2 °C 3 °C 997.6 hPa Calm   4.8 km/h 92% 0.0 mm 0 W/m2
08:44 4.2 °C 3 °C 997.6 hPa West 4.7 km/h 6.4 km/h 92% 0.0 mm 0 W/m2
08:49 4.2 °C 3 °C 997.6 hPa WNW 1.4 km/h 9.7 km/h 92% 0.0 mm 0 W/m2
08:54 4.2 °C 3 °C 997.6 hPa NW 4.7 km/h 4.8 km/h 92% 0.0 mm 0 W/m2
08:59 4.2 °C 3.2 °C 998.0 hPa NNW 4.7 km/h 9.7 km/h 93% 0.0 mm 0 W/m2
09:04 4.1 °C 3.1 °C 997.6 hPa NW 1.4 km/h 8 km/h 93% 0.0 mm 0 W/m2
09:09 4.1 °C 3.1 °C 998.0 hPa NW 3.2 km/h 9.7 km/h 93% 0.0 mm 0 W/m2
09:14 4.1 °C 3.1 °C 997.6 hPa NW 3.2 km/h 3.2 km/h 93% 0.0 mm 5 W/m2
09:19 4.1 °C 3.1 °C 997.6 hPa Calm   6.4 km/h 93% 0.0 mm 5 W/m2
09:24 4.1 °C 2.9 °C 997.6 hPa NNW 3.2 km/h 3.2 km/h 92% 0.0 mm 7 W/m2
09:29 4.1 °C 2.9 °C 997.6 hPa ENE 1.4 km/h 6.4 km/h 92% 0.0 mm 9 W/m2
09:34 4.1 °C 2.9 °C 997.6 hPa NNW 3.2 km/h 6.4 km/h 92% 0.0 mm 16 W/m2
09:39 4.1 °C 2.9 °C 997.3 hPa NW 4.7 km/h 4.8 km/h 92% 0.0 mm 19 W/m2
09:44 4.1 °C 2.9 °C 997.3 hPa NNW 1.4 km/h 6.4 km/h 92% 0.0 mm 21 W/m2
09:49 4.2 °C 3 °C 997.3 hPa Calm   3.2 km/h 92% 0.0 mm 35 W/m2
09:54 4.2 °C 3 °C 997.3 hPa NNW 1.4 km/h 4.8 km/h 92% 0.0 mm 51 W/m2
09:59 4.2 °C 3 °C 997.3 hPa Calm   4.8 km/h 92% 0.0 mm 54 W/m2
10:07 4.3 °C 3 °C 997.0 hPa NW 1.4 km/h 3.2 km/h 91% 0.0 mm 74 W/m2
10:12 4.3 °C 3 °C 997.0 hPa ESE 4.7 km/h 6.4 km/h 91% 0.0 mm 84 W/m2
10:17 4.4 °C 3.1 °C 997.0 hPa SE 4.7 km/h 4.8 km/h 91% 0.0 mm 69 W/m2
10:22 4.4 °C 3.1 °C 997.0 hPa East 3.2 km/h 6.4 km/h 91% 0.0 mm 91 W/m2
10:27 4.5 °C 3.2 °C 997.0 hPa Calm   1.6 km/h 91% 0.0 mm 77 W/m2
10:32 4.6 °C 3.3 °C 997.0 hPa NNE 3.2 km/h 6.4 km/h 91% 0.0 mm 83 W/m2
10:37 4.7 °C 3.2 °C 997.0 hPa ENE 3.2 km/h 8 km/h 90% 0.0 mm 104 W/m2
10:42 4.7 °C 3.2 °C 996.6 hPa NNE 1.4 km/h 3.2 km/h 90% 0.0 mm 90 W/m2
10:47 4.8 °C 3.1 °C 996.6 hPa WSW 1.4 km/h 6.4 km/h 89% 0.0 mm 120 W/m2
10:52 4.8 °C 3.1 °C 996.6 hPa Calm   1.6 km/h 89% 0.0 mm 156 W/m2
10:57 5 °C 3.3 °C 996.3 hPa Calm   8 km/h 89% 0.0 mm 179 W/m2
11:02 5.2 °C 3.5 °C 996.3 hPa SE 3.2 km/h 8 km/h 89% 0.0 mm 169 W/m2
11:07 5.3 °C 3.5 °C 996.3 hPa Calm   3.2 km/h 88% 0.0 mm 120 W/m2
11:12 5.3 °C 3.5 °C 996.3 hPa Calm   3.2 km/h 88% 0.0 mm 114 W/m2
11:17 5.4 °C 3.4 °C 996.3 hPa North 1.4 km/h 4.8 km/h 87% 0.0 mm 169 W/m2
11:22 5.4 °C 3.2 °C 996.3 hPa West 1.4 km/h 4.8 km/h 86% 0.0 mm 148 W/m2
11:27 5.5 °C 3.3 °C 995.9 hPa ENE 1.4 km/h 3.2 km/h 86% 0.0 mm 181 W/m2
11:32 5.6 °C 3.3 °C 995.9 hPa Calm   9.7 km/h 85% 0.0 mm 158 W/m2
11:37 5.7 °C 3.4 °C 995.9 hPa Calm   4.8 km/h 85% 0.0 mm 130 W/m2
11:42 5.7 °C 3.2 °C 995.9 hPa East 3.2 km/h 11.3 km/h 84% 0.0 mm 113 W/m2
11:47 5.7 °C 3.2 °C 995.9 hPa North 1.4 km/h 4.8 km/h 84% 0.0 mm 132 W/m2
11:52 5.7 °C 3.2 °C 995.6 hPa East 3.2 km/h 9.7 km/h 84% 0.0 mm 137 W/m2
11:57 5.7 °C 3 °C 995.6 hPa East 4.7 km/h 6.4 km/h 83% 0.0 mm 132 W/m2
12:02 5.7 °C 2.9 °C 995.6 hPa East 3.2 km/h 3.2 km/h 82% 0.0 mm 123 W/m2
12:07 5.7 °C 3 °C 995.6 hPa SSE 1.4 km/h 8 km/h 83% 0.0 mm 128 W/m2
12:13 5.7 °C 3 °C 995.6 hPa ESE 3.2 km/h 9.7 km/h 83% 0.0 mm 111 W/m2
12:18 5.7 °C 3 °C 995.6 hPa East 1.4 km/h 4.8 km/h 83% 0.0 mm 130 W/m2
12:23 5.7 °C 3.2 °C 995.3 hPa ESE 4.7 km/h 11.3 km/h 84% 0.0 mm 151 W/m2
12:28 5.7 °C 3.2 °C 995.3 hPa ESE 9.7 km/h 9.7 km/h 84% 0.0 mm 134 W/m2
12:33 5.6 °C 3.1 °C 995.3 hPa ESE 9.7 km/h 11.3 km/h 84% 0.0 mm 120 W/m2
12:38 5.7 °C 3.2 °C 995.3 hPa Calm   9.7 km/h 84% 0.0 mm 104 W/m2
12:43 5.7 °C 3.2 °C 994.9 hPa SE 1.4 km/h 6.4 km/h 84% 0.0 mm 79 W/m2
12:48 5.6 °C 3.1 °C 994.9 hPa Calm   6.4 km/h 84% 0.0 mm 49 W/m2
12:53 5.6 °C 3.1 °C 994.9 hPa ENE 3.2 km/h 4.8 km/h 84% 0.0 mm 113 W/m2
12:58 5.6 °C 3.1 °C 994.6 hPa East 4.7 km/h 6.4 km/h 84% 0.0 mm 139 W/m2
13:03 5.7 °C 3.2 °C 994.6 hPa East 1.4 km/h 6.4 km/h 84% 0.0 mm 123 W/m2
13:08 5.7 °C 3 °C 994.2 hPa ESE 4.7 km/h 12.9 km/h 83% 0.0 mm 98 W/m2
13:13 5.7 °C 3 °C 994.2 hPa East 6.4 km/h 6.4 km/h 83% 0.0 mm 88 W/m2
13:18 5.7 °C 3 °C 994.2 hPa ENE 1.4 km/h 12.9 km/h 83% 0.0 mm 83 W/m2
13:23 5.7 °C 3 °C 993.9 hPa ENE 4.7 km/h 9.7 km/h 83% 0.0 mm 102 W/m2
13:28 5.6 °C 2.9 °C 993.9 hPa NE 4.7 km/h 14.5 km/h 83% 0.0 mm 95 W/m2
13:33 5.6 °C 3.1 °C 993.9 hPa East 3.2 km/h 9.7 km/h 84% 0.0 mm 72 W/m2
13:38 5.5 °C 2.8 °C 993.9 hPa ESE 4.7 km/h 14.5 km/h 83% 0.0 mm 46 W/m2
13:43 5.3 °C 2.8 °C 993.6 hPa East 11.1 km/h 16.1 km/h 84% 0.0 mm 65 W/m2
13:48 5.2 °C 2.7 °C 993.6 hPa East 9.7 km/h 12.9 km/h 84% 0.0 mm 56 W/m2
13:53 5.2 °C 2.9 °C 993.6 hPa ESE 9.7 km/h 9.7 km/h 85% 0.0 mm 67 W/m2
13:58 5.2 °C 2.9 °C 993.6 hPa ESE 4.7 km/h 11.3 km/h 85% 0.0 mm 95 W/m2
14:03 5.2 °C 2.9 °C 993.6 hPa ENE 1.4 km/h 12.9 km/h 85% 0.0 mm 70 W/m2
14:08 5.1 °C 2.8 °C 993.2 hPa ESE 3.2 km/h 16.1 km/h 85% 0.0 mm 53 W/m2
14:13 5.1 °C 2.8 °C 993.2 hPa East 6.4 km/h 12.9 km/h 85% 0.0 mm 47 W/m2
14:18 5.1 °C 2.8 °C 992.9 hPa East 6.4 km/h 11.3 km/h 85% 0.0 mm 42 W/m2
14:23 5.1 °C 3 °C 992.9 hPa East 3.2 km/h 11.3 km/h 86% 0.0 mm 39 W/m2
14:28 5 °C 2.9 °C 992.9 hPa East 11.1 km/h 11.3 km/h 86% 0.0 mm 33 W/m2
14:33 4.9 °C 2.9 °C 992.9 hPa SSE 1.4 km/h 6.4 km/h 87% 0.0 mm 32 W/m2
14:38 4.8 °C 2.8 °C 992.9 hPa East 3.2 km/h 9.7 km/h 87% 0.0 mm 37 W/m2
14:43 4.7 °C 2.9 °C 992.5 hPa East 3.2 km/h 6.4 km/h 88% 0.0 mm 28 W/m2
14:48 4.6 °C 2.9 °C 992.5 hPa East 4.7 km/h 6.4 km/h 89% 0.0 mm 25 W/m2
14:53 4.6 °C 2.9 °C 992.5 hPa East 3.2 km/h 6.4 km/h 89% 0.0 mm 32 W/m2
14:58 4.6 °C 3.1 °C 992.5 hPa SE 3.2 km/h 11.3 km/h 90% 0.0 mm 42 W/m2
15:03 4.5 °C 3 °C 992.5 hPa ESE 1.4 km/h 6.4 km/h 90% 0.0 mm 28 W/m2
15:08 4.4 °C 3.1 °C 992.2 hPa ESE 3.2 km/h 11.3 km/h 91% 0.2 mm 32 W/m2
15:13 4.3 °C 2.8 °C 992.2 hPa ESE 1.4 km/h 11.3 km/h 90% 0.2 mm 23 W/m2
15:18 4.1 °C 2.6 °C 992.2 hPa ESE 3.2 km/h 12.9 km/h 90% 0.5 mm 21 W/m2
15:23 4 °C 2.7 °C 991.9 hPa ESE 6.4 km/h 6.4 km/h 91% 0.5 mm 23 W/m2
15:28 3.8 °C 2.5 °C 991.9 hPa ESE 1.4 km/h 12.9 km/h 91% 0.5 mm 19 W/m2
15:33 3.7 °C 2.4 °C 991.9 hPa ESE 4.7 km/h 11.3 km/h 91% 0.8 mm 25 W/m2
15:38 3.5 °C 2.3 °C 991.9 hPa ESE 4.7 km/h 14.5 km/h 92% 0.8 mm 23 W/m2
15:43 3.4 °C 2.2 °C 991.9 hPa East 1.4 km/h 12.9 km/h 92% 1.0 mm 23 W/m2
15:48 3.3 °C 2.3 °C 991.9 hPa ESE 3.2 km/h 14.5 km/h 93% 1.3 mm 21 W/m2
15:53 3.2 °C 2.2 °C 991.9 hPa East 1.4 km/h 11.3 km/h 93% 1.3 mm 18 W/m2
15:58 3.2 °C 2.2 °C 991.9 hPa Calm   9.7 km/h 93% 1.5 mm 12 W/m2
16:03 3.2 °C 2.2 °C 991.9 hPa SE 4.7 km/h 4.8 km/h 93% 1.5 mm 11 W/m2
16:08 3.2 °C 2.3 °C 991.9 hPa ENE 6.4 km/h 11.3 km/h 94% 1.3 mm 11 W/m2
16:13 3.1 °C 2.2 °C 991.9 hPa East 4.7 km/h 8 km/h 94% 1.3 mm 14 W/m2
16:18 3.1 °C 2.2 °C 991.9 hPa East 3.2 km/h 6.4 km/h 94% 1.0 mm 12 W/m2
16:23 3.1 °C 2.2 °C 991.9 hPa ESE 4.7 km/h 11.3 km/h 94% 0.8 mm 14 W/m2
16:28 3 °C 2.1 °C 991.9 hPa ESE 4.7 km/h 12.9 km/h 94% 0.8 mm 12 W/m2
16:33 2.9 °C 2 °C 991.9 hPa ESE 3.2 km/h 9.7 km/h 94% 0.8 mm 12 W/m2
16:38 2.8 °C 1.9 °C 991.9 hPa NNE 4.7 km/h 9.7 km/h 94% 0.8 mm 14 W/m2
16:43 2.8 °C 1.9 °C 991.5 hPa ENE 4.7 km/h 12.9 km/h 94% 0.5 mm 18 W/m2
16:48 2.8 °C 1.9 °C 991.5 hPa SSE 9.7 km/h 11.3 km/h 94% 0.5 mm 23 W/m2
16:53 2.7 °C 1.8 °C 991.5 hPa East 1.4 km/h 9.7 km/h 94% 0.5 mm 12 W/m2
16:58 2.7 °C 1.8 °C 991.5 hPa East 3.2 km/h 6.4 km/h 94% 0.2 mm 7 W/m2
17:03 2.7 °C 2 °C 991.5 hPa East 6.4 km/h 11.3 km/h 95% 0.2 mm 0 W/m2
17:08 2.6 °C 1.9 °C 991.5 hPa ESE 1.4 km/h 11.3 km/h 95% 0.5 mm 0 W/m2
17:13 2.6 °C 1.9 °C 991.5 hPa SE 4.7 km/h 11.3 km/h 95% 0.5 mm 0 W/m2
17:18 2.6 °C 1.9 °C 991.5 hPa Calm   6.4 km/h 95% 0.5 mm 0 W/m2
17:23 2.6 °C 1.9 °C 991.5 hPa East 11.3 km/h 11.3 km/h 95% 0.5 mm 0 W/m2
17:28 2.4 °C 1.7 °C 991.5 hPa ESE 3.2 km/h 11.3 km/h 95% 0.5 mm 0 W/m2
17:33 2.4 °C 1.7 °C 991.5 hPa Calm   4.8 km/h 95% 0.2 mm 0 W/m2
17:38 2.4 °C 1.7 °C 991.5 hPa ESE 1.4 km/h 11.3 km/h 95% 0.5 mm 0 W/m2
17:43 2.4 °C 1.7 °C 991.5 hPa ENE 1.4 km/h 1.6 km/h 95% 0.5 mm 0 W/m2
17:48 2.4 °C 1.7 °C 991.5 hPa Calm   1.6 km/h 95% 0.5 mm 0 W/m2
17:53 2.4 °C 1.7 °C 991.5 hPa Calm     95% 0.5 mm 0 W/m2
17:58 2.5 °C 1.8 °C 991.5 hPa Calm     95% 0.5 mm 0 W/m2
18:03 2.5 °C 1.8 °C 991.5 hPa Calm     95% 0.5 mm 0 W/m2
18:08 2.5 °C 1.8 °C 991.2 hPa ENE 1.4 km/h 3.2 km/h 95% 0.2 mm 0 W/m2
18:13 2.5 °C 1.8 °C 991.5 hPa Calm   3.2 km/h 95% 0.5 mm 0 W/m2
18:18 2.5 °C 1.8 °C 991.5 hPa Calm   1.6 km/h 95% 0.5 mm 0 W/m2
18:23 2.4 °C 1.7 °C 991.2 hPa Calm   3.2 km/h 95% 1.0 mm 0 W/m2
18:28 2.3 °C 1.6 °C 991.2 hPa ESE 1.4 km/h 3.2 km/h 95% 1.3 mm 0 W/m2
18:33 2.3 °C 1.6 °C 991.2 hPa Calm   3.2 km/h 95% 1.5 mm 0 W/m2
18:38 2.3 °C 1.6 °C 991.2 hPa Calm   1.6 km/h 95% 1.5 mm 0 W/m2
18:43 2.2 °C 1.5 °C 991.2 hPa Calm   3.2 km/h 95% 1.5 mm 0 W/m2
18:48 2.2 °C 1.5 °C 991.2 hPa ENE 1.4 km/h 1.6 km/h 95% 1.5 mm 0 W/m2
18:53 2.2 °C 1.5 °C 990.9 hPa Calm   3.2 km/h 95% 1.5 mm 0 W/m2
18:58 2.2 °C 1.5 °C 990.9 hPa Calm   1.6 km/h 95% 1.8 mm 0 W/m2
19:03 2.2 °C 1.5 °C 990.9 hPa Calm     95% 1.8 mm 0 W/m2
19:08 2.1 °C 1.4 °C 990.9 hPa Calm   1.6 km/h 95% 1.8 mm 0 W/m2
19:13 2.2 °C 1.5 °C 990.9 hPa Calm     95% 1.5 mm 0 W/m2
19:18 2.1 °C 1.4 °C 990.9 hPa Calm     95% 1.5 mm 0 W/m2
19:23 2.2 °C 1.5 °C 990.9 hPa ENE 1.6 km/h 1.6 km/h 95% 1.0 mm 0 W/m2
19:28 2.1 °C 1.4 °C 990.9 hPa Calm   3.2 km/h 95% 1.0 mm 0 W/m2
19:34 2.1 °C 1.4 °C 990.9 hPa WNW 3.2 km/h 3.2 km/h 95% 0.8 mm 0 W/m2
19:39 2.1 °C 1.5 °C 990.9 hPa Calm   1.6 km/h 96% 0.5 mm 0 W/m2
19:44 2.1 °C 1.5 °C 990.9 hPa Calm     96% 0.5 mm 0 W/m2
19:49 2.1 °C 1.4 °C 990.9 hPa Calm     95% 0.5 mm 0 W/m2
19:54 2.1 °C 1.4 °C 990.9 hPa Calm     95% 0.8 mm 0 W/m2
19:59 2.1 °C 1.4 °C 990.9 hPa Calm     95% 0.8 mm 0 W/m2
20:04 2.1 °C 1.5 °C 990.9 hPa Calm   1.6 km/h 96% 0.8 mm 0 W/m2
20:09 2.1 °C 1.5 °C 990.9 hPa Calm     96% 0.8 mm 0 W/m2
20:14 2.1 °C 1.5 °C 990.9 hPa Calm   1.6 km/h 96% 1.0 mm 0 W/m2
20:19 2.1 °C 1.5 °C 990.9 hPa Calm     96% 1.0 mm 0 W/m2
20:24 2.1 °C 1.5 °C 990.9 hPa Calm     96% 1.0 mm 0 W/m2
20:29 2.1 °C 1.5 °C 990.9 hPa Calm     96% 1.0 mm 0 W/m2
20:34 2.1 °C 1.5 °C 990.9 hPa Calm     96% 1.0 mm 0 W/m2
20:39 2.1 °C 1.5 °C 990.9 hPa Calm     96% 1.0 mm 0 W/m2
20:44 2 °C 1.4 °C 990.9 hPa Calm     96% 1.0 mm 0 W/m2
20:49 2 °C 1.4 °C 990.9 hPa Calm     96% 1.0 mm 0 W/m2
20:54 1.9 °C 1.3 °C 990.9 hPa Calm     96% 1.0 mm 0 W/m2
20:59 1.9 °C 1.3 °C 990.9 hPa Calm     96% 0.8 mm 0 W/m2
21:04 1.9 °C 1.3 °C 990.9 hPa NW 3.2 km/h 6.4 km/h 96% 0.8 mm 0 W/m2
21:09 1.8 °C 1.1 °C 990.9 hPa WNW 3.2 km/h 6.4 km/h 95% 1.0 mm 0 W/m2
21:14 1.7 °C 1 °C 990.9 hPa WSW 1.4 km/h 4.8 km/h 95% 0.8 mm 0 W/m2
21:19 1.7 °C 1 °C 990.9 hPa West 1.4 km/h 4.8 km/h 95% 1.0 mm 0 W/m2
Juneau County Weather
Compliments of Weather Underground - 2 mb